createdAt,value
2022-10-17T00:00:36.523Z,6.73
2022-10-17T00:03:03.530Z,6.07
2022-10-17T00:05:30.468Z,6.50
2022-10-17T00:07:57.308Z,6.37
2022-10-17T00:10:24.432Z,5.97
2022-10-17T00:12:52.130Z,5.93
2022-10-17T00:15:21.126Z,5.80
2022-10-17T00:17:48.014Z,5.90
2022-10-17T00:20:15.707Z,6.47
2022-10-17T00:22:42.614Z,5.77
2022-10-17T00:25:09.711Z,6.30
2022-10-17T00:27:38.744Z,5.93
2022-10-17T00:30:07.839Z,6.77
2022-10-17T00:32:34.688Z,6.57
2022-10-17T00:35:01.582Z,7.30
2022-10-17T00:37:29.840Z,6.50
2022-10-17T00:39:56.646Z,6.67
2022-10-17T00:42:25.215Z,25.77
2022-10-17T00:45:03.184Z,6.97
2022-10-17T00:47:30.864Z,6.50
2022-10-17T00:49:58.647Z,6.00
2022-10-17T00:52:28.998Z,6.00
2022-10-17T00:55:03.730Z,6.50
2022-10-17T00:57:32.406Z,5.80
2022-10-17T01:00:03.179Z,6.13
2022-10-17T01:02:30.107Z,5.90
2022-10-17T01:04:59.565Z,5.70
2022-10-17T01:07:32.026Z,7.03
2022-10-17T01:10:02.100Z,6.20
2022-10-17T01:12:52.996Z,5.90
2022-10-17T01:15:39.133Z,6.27
2022-10-17T01:18:17.556Z,6.70
2022-10-17T01:21:02.090Z,6.80
2022-10-17T01:24:26.047Z,6.83
2022-10-17T01:27:07.236Z,6.93
2022-10-17T01:30:03.154Z,7.00
2022-10-17T01:32:37.189Z,6.60
2022-10-17T01:35:37.973Z,6.30
2022-10-17T01:38:26.844Z,5.93
2022-10-17T01:41:02.442Z,5.53
2022-10-17T01:43:39.286Z,6.40
2022-10-17T01:46:18.352Z,6.40
2022-10-17T01:48:46.618Z,6.30
2022-10-17T01:51:23.288Z,6.10
2022-10-17T01:54:39.304Z,6.10
2022-10-17T01:57:11.560Z,5.83
2022-10-17T01:59:43.185Z,6.37
2022-10-17T02:02:11.644Z,6.63
2022-10-17T02:04:38.557Z,7.20
2022-10-17T02:07:10.725Z,7.00
2022-10-17T02:09:38.086Z,7.53
2022-10-17T02:12:23.044Z,9.00
2022-10-17T02:15:26.762Z,7.93
2022-10-17T02:18:38.733Z,7.23
2022-10-17T02:21:39.687Z,6.60
2022-10-17T02:24:09.837Z,8.90
2022-10-17T02:26:58.306Z,7.47
2022-10-17T02:29:31.637Z,6.87
2022-10-17T02:32:10.009Z,7.03
2022-10-17T02:34:50.755Z,6.37
2022-10-17T02:37:21.953Z,6.30
2022-10-17T02:39:50.765Z,5.60
2022-10-17T02:42:18.806Z,4.73
2022-10-17T02:44:47.018Z,4.47
2022-10-17T02:47:18.983Z,4.87
2022-10-17T02:49:51.645Z,4.67
2022-10-17T02:52:29.305Z,4.93
2022-10-17T02:55:21.086Z,4.90
2022-10-17T02:57:49.820Z,4.47
2022-10-17T03:00:18.787Z,4.87
2022-10-17T03:02:53.109Z,5.10
2022-10-17T03:05:23.330Z,5.20
2022-10-17T03:07:50.629Z,4.53
2022-10-17T03:10:18.040Z,4.73
2022-10-17T03:12:44.890Z,4.90
2022-10-17T03:15:12.565Z,4.43
2022-10-17T03:17:39.573Z,4.30
2022-10-17T03:20:07.524Z,4.70
2022-10-17T03:22:34.714Z,4.43
2022-10-17T03:25:01.704Z,4.67
2022-10-17T03:27:28.756Z,4.40
2022-10-17T03:29:55.846Z,4.43
2022-10-17T03:32:22.698Z,4.20
2022-10-17T03:34:49.508Z,4.60
2022-10-17T03:37:16.326Z,4.00
2022-10-17T03:39:43.148Z,4.40
2022-10-17T03:42:10.015Z,5.00
2022-10-17T03:44:36.838Z,4.97
2022-10-17T03:47:03.663Z,4.90
2022-10-17T03:49:30.439Z,5.07
2022-10-17T03:51:57.333Z,4.50
2022-10-17T03:54:24.506Z,4.50
2022-10-17T03:56:51.481Z,16.47
2022-10-17T03:59:18.563Z,7.30
2022-10-17T04:01:45.402Z,4.10
2022-10-17T04:04:12.237Z,4.43
2022-10-17T04:06:39.161Z,5.10
2022-10-17T04:09:07.397Z,4.27
2022-10-17T04:11:34.614Z,4.07
2022-10-17T04:14:01.511Z,3.87
2022-10-17T04:16:28.564Z,3.73
2022-10-17T04:18:57.020Z,4.40
2022-10-17T04:21:25.831Z,4.50
2022-10-17T04:23:56.811Z,3.90
2022-10-17T04:26:23.983Z,3.73
2022-10-17T04:28:51.509Z,3.67
2022-10-17T04:31:18.919Z,3.80
2022-10-17T04:33:49.981Z,4.10
2022-10-17T04:36:19.754Z,3.73
2022-10-17T04:38:46.794Z,4.10
2022-10-17T04:41:16.625Z,3.97
2022-10-17T04:43:46.913Z,3.80
2022-10-17T04:46:17.085Z,3.53
2022-10-17T04:48:43.966Z,3.27
2022-10-17T04:51:16.255Z,5.17
2022-10-17T04:53:44.066Z,4.60
2022-10-17T04:56:19.385Z,4.40
2022-10-17T04:58:47.538Z,4.60
2022-10-17T05:01:21.169Z,3.97
2022-10-17T05:03:48.438Z,3.97
2022-10-17T05:06:18.017Z,4.10
2022-10-17T05:08:45.360Z,4.00
2022-10-17T05:11:23.993Z,4.73
2022-10-17T05:13:56.589Z,4.50
2022-10-17T05:16:24.479Z,4.33
2022-10-17T05:18:53.430Z,4.07
2022-10-17T05:21:21.851Z,4.30
2022-10-17T05:23:48.782Z,4.20
2022-10-17T05:26:15.664Z,4.70
2022-10-17T05:28:42.566Z,4.33
2022-10-17T05:31:11.170Z,4.83
2022-10-17T05:33:39.133Z,4.70
2022-10-17T05:36:07.272Z,5.13
2022-10-17T05:38:34.649Z,6.10
2022-10-17T05:41:03.445Z,6.10
2022-10-17T05:43:30.484Z,5.57
2022-10-17T05:45:57.573Z,6.20
2022-10-17T05:48:24.553Z,7.97
2022-10-17T05:50:59.247Z,7.33
2022-10-17T05:53:26.145Z,7.10
2022-10-17T05:56:00.538Z,6.37
2022-10-17T06:01:15.050Z,6.93
2022-10-17T06:03:41.872Z,7.00
2022-10-17T06:06:12.652Z,6.47
2022-10-17T06:08:40.064Z,7.20
2022-10-17T06:11:09.946Z,7.00
2022-10-17T06:13:38.291Z,6.03
2022-10-17T06:16:05.368Z,5.30
2022-10-17T06:18:32.482Z,5.80
2022-10-17T06:21:08.026Z,5.50
2022-10-17T06:23:35.412Z,5.20
2022-10-17T06:26:04.237Z,5.10
2022-10-17T06:28:31.536Z,4.93
2022-10-17T06:30:58.455Z,5.03
2022-10-17T06:33:25.602Z,5.30
2022-10-17T06:35:56.514Z,5.50
2022-10-17T06:38:23.683Z,5.20
2022-10-17T06:40:50.652Z,4.60
2022-10-17T06:43:17.505Z,4.93
2022-10-17T06:45:47.466Z,5.27
2022-10-17T06:48:14.898Z,5.47
2022-10-17T06:50:41.720Z,5.80
2022-10-17T06:53:08.541Z,5.83
2022-10-17T06:55:35.325Z,5.87
2022-10-17T06:58:02.137Z,5.83
2022-10-17T07:00:29.004Z,5.50
2022-10-17T07:02:55.830Z,6.53
2022-10-17T07:05:23.161Z,6.10
2022-10-17T07:07:51.066Z,6.50
2022-10-17T07:10:18.850Z,5.83
2022-10-17T07:12:45.974Z,6.40
2022-10-17T07:15:13.185Z,6.90
2022-10-17T07:17:40.076Z,6.37
2022-10-17T07:20:07.443Z,6.37
2022-10-17T07:22:34.281Z,6.77
2022-10-17T07:25:01.125Z,6.33
2022-10-17T07:27:28.142Z,6.43
2022-10-17T07:29:55.240Z,6.53
2022-10-17T07:32:22.033Z,6.70
2022-10-17T07:34:48.817Z,6.77
2022-10-17T07:37:15.671Z,7.40
2022-10-17T07:39:42.450Z,7.17
2022-10-17T07:42:10.151Z,8.77
2022-10-17T07:44:36.979Z,7.80
2022-10-17T07:47:04.376Z,6.90
2022-10-17T07:49:31.402Z,7.13
2022-10-17T07:51:58.294Z,7.97
2022-10-17T07:54:25.321Z,8.13
2022-10-17T07:56:52.166Z,7.70
2022-10-17T07:59:19.284Z,7.00
2022-10-17T08:01:46.174Z,7.00
2022-10-17T08:04:13.144Z,7.47
2022-10-17T08:06:39.944Z,8.20
2022-10-17T08:09:06.782Z,7.93
2022-10-17T08:11:33.801Z,7.80
2022-10-17T08:14:00.572Z,8.30
2022-10-17T08:16:27.516Z,8.23
2022-10-17T08:18:54.327Z,8.30
2022-10-17T08:21:21.283Z,7.53
2022-10-17T08:23:48.129Z,7.50
2022-10-17T08:26:17.302Z,8.47
2022-10-17T08:28:44.392Z,7.73
2022-10-17T08:31:14.648Z,7.33
2022-10-17T08:33:42.499Z,6.60
2022-10-17T08:36:15.063Z,6.60
2022-10-17T08:38:43.647Z,5.37
2022-10-17T08:41:19.555Z,6.43
2022-10-17T08:43:52.031Z,5.53
2022-10-17T08:46:20.187Z,5.50
2022-10-17T08:48:49.510Z,5.13
2022-10-17T08:51:21.151Z,5.20
2022-10-17T08:54:02.355Z,5.20
2022-10-17T08:56:49.309Z,4.53
2022-10-17T08:59:28.423Z,4.70
2022-10-17T09:02:00.919Z,4.20
2022-10-17T09:04:59.032Z,4.37
2022-10-17T09:07:48.332Z,4.30
2022-10-17T09:10:26.512Z,3.67
2022-10-17T09:13:06.882Z,3.77
2022-10-17T09:16:01.384Z,3.40
2022-10-17T09:18:33.953Z,3.07
2022-10-17T09:21:09.568Z,3.43
2022-10-17T09:24:09.357Z,3.17
2022-10-17T09:26:40.928Z,2.90
2022-10-17T09:29:18.039Z,2.60
2022-10-17T09:31:51.407Z,2.20
2022-10-17T09:34:18.426Z,2.60
2022-10-17T09:36:45.323Z,2.63
2022-10-17T09:39:19.839Z,2.60
2022-10-17T09:41:59.054Z,2.57
2022-10-17T09:44:31.713Z,2.33
2022-10-17T09:47:25.574Z,2.40
2022-10-17T09:49:52.472Z,1.50
2022-10-17T09:52:34.267Z,2.10
2022-10-17T09:55:04.214Z,2.20
2022-10-17T09:57:55.271Z,1.90
2022-10-17T10:00:30.918Z,1.93
2022-10-17T10:03:16.742Z,2.00
2022-10-17T10:06:05.036Z,2.10
2022-10-17T10:08:37.124Z,1.80
2022-10-17T10:11:13.425Z,1.70
2022-10-17T10:13:40.868Z,1.87
2022-10-17T10:16:32.371Z,1.97
2022-10-17T10:18:59.302Z,2.00
2022-10-17T10:21:27.611Z,1.70
2022-10-17T10:24:09.547Z,2.00
2022-10-17T10:26:40.460Z,1.70
2022-10-17T10:29:20.081Z,2.07
2022-10-17T10:31:47.931Z,1.83
2022-10-17T10:34:26.007Z,1.80
2022-10-17T10:36:59.075Z,2.40
2022-10-17T10:39:55.243Z,2.67
2022-10-17T10:42:35.673Z,2.73
2022-10-17T10:45:47.009Z,2.50
2022-10-17T10:48:24.260Z,2.63
2022-10-17T10:51:16.497Z,2.10
2022-10-17T10:53:43.259Z,1.90
2022-10-17T10:56:21.914Z,2.23
2022-10-17T10:58:57.369Z,2.23
2022-10-17T11:01:37.934Z,2.33
2022-10-17T11:04:08.634Z,2.00
2022-10-17T11:06:40.107Z,1.70
2022-10-17T11:09:40.244Z,2.13
2022-10-17T11:12:14.822Z,1.58
2022-10-17T11:14:47.459Z,1.50
2022-10-17T11:17:46.589Z,1.60
2022-10-17T11:20:19.783Z,1.42
2022-10-17T11:22:55.719Z,2.85
2022-10-17T11:25:22.545Z,1.83
2022-10-17T11:27:49.468Z,1.42
2022-10-17T11:30:16.902Z,2.30
2022-10-17T11:32:52.521Z,1.85
2022-10-17T11:35:38.065Z,1.80
2022-10-17T11:38:20.103Z,1.60
2022-10-17T11:40:50.771Z,1.67
2022-10-17T11:43:31.566Z,1.55
2022-10-17T11:46:13.630Z,1.50
2022-10-17T11:48:46.252Z,1.85
2022-10-17T11:54:35.197Z,1.67
2022-10-17T11:57:09.155Z,2.25
2022-10-17T11:59:56.978Z,1.70
2022-10-17T12:02:53.393Z,1.90
2022-10-17T12:05:46.557Z,1.57
2022-10-17T12:08:39.361Z,1.60
2022-10-17T12:11:39.304Z,1.53
2022-10-17T12:14:41.253Z,1.60
2022-10-17T12:17:39.099Z,1.53
2022-10-17T12:20:21.668Z,1.80
2022-10-17T12:22:53.247Z,1.87
2022-10-17T12:25:30.232Z,1.83
2022-10-17T12:28:15.834Z,1.70
2022-10-17T12:30:53.784Z,1.90
2022-10-17T12:33:37.142Z,1.47
2022-10-17T12:36:18.773Z,1.70
2022-10-17T12:38:50.030Z,1.50
2022-10-17T12:41:37.835Z,1.80
2022-10-17T12:44:13.783Z,1.80
2022-10-17T12:47:09.750Z,1.73
2022-10-17T12:49:46.673Z,1.40
2022-10-17T12:52:31.629Z,1.60
2022-10-17T12:55:14.214Z,1.60
2022-10-17T12:58:08.238Z,1.70
2022-10-17T13:00:49.806Z,1.70
2022-10-17T13:03:28.392Z,1.63
2022-10-17T13:05:59.468Z,1.27
2022-10-17T13:08:30.467Z,1.73
2022-10-17T13:10:58.061Z,1.57
2022-10-17T13:13:45.393Z,1.90
2022-10-17T13:16:51.093Z,1.80
2022-10-17T13:19:20.247Z,1.63
2022-10-17T13:22:05.968Z,1.50
2022-10-17T13:24:37.187Z,1.73
2022-10-17T13:27:05.926Z,1.53
2022-10-17T13:29:33.654Z,1.70
2022-10-17T13:32:03.974Z,1.30
2022-10-17T13:34:32.702Z,1.63
2022-10-17T13:37:06.031Z,1.70
2022-10-17T13:40:00.440Z,1.63
2022-10-17T13:42:38.340Z,1.67
2022-10-17T13:45:16.193Z,1.60
2022-10-17T13:47:43.325Z,1.50
2022-10-17T13:50:43.079Z,1.50
2022-10-17T13:53:18.131Z,1.43
2022-10-17T13:56:27.305Z,1.43
2022-10-17T13:59:00.163Z,1.40
2022-10-17T14:01:29.281Z,1.57
2022-10-17T14:04:08.263Z,1.47
2022-10-17T14:06:47.665Z,1.60
2022-10-17T14:09:29.474Z,1.70
2022-10-17T14:12:03.210Z,1.50
2022-10-17T14:14:41.675Z,1.33
2022-10-17T14:17:26.026Z,1.30
2022-10-17T14:22:50.659Z,1.63
2022-10-17T14:25:40.218Z,1.70
2022-10-17T14:28:14.139Z,1.53
2022-10-17T14:30:56.133Z,1.60
2022-10-17T14:33:28.486Z,1.93
2022-10-17T14:35:57.689Z,2.00
2022-10-17T14:38:25.669Z,1.70
2022-10-17T14:41:09.564Z,1.87
2022-10-17T14:43:43.624Z,1.73
2022-10-17T14:46:16.866Z,1.73
2022-10-17T14:48:44.029Z,1.70
2022-10-17T14:51:16.363Z,1.70
2022-10-17T14:54:05.198Z,1.93
2022-10-17T14:56:39.660Z,1.70
2022-10-17T14:59:11.134Z,1.77
2022-10-17T15:01:38.806Z,1.73
2022-10-17T15:04:05.709Z,2.03
2022-10-17T15:06:34.725Z,2.17
2022-10-17T15:09:01.902Z,1.90
2022-10-17T15:11:29.082Z,2.30
2022-10-17T15:13:55.979Z,2.20
2022-10-17T15:16:26.126Z,1.90
2022-10-17T15:18:53.934Z,1.80
2022-10-17T15:21:37.601Z,2.23
2022-10-17T15:24:07.521Z,2.20
2022-10-17T15:26:34.912Z,1.80
2022-10-17T15:29:02.058Z,1.83
2022-10-17T15:31:31.382Z,2.00
2022-10-17T15:33:58.163Z,1.80
2022-10-17T15:36:30.481Z,2.00
2022-10-17T15:39:00.049Z,1.80
2022-10-17T15:41:29.396Z,2.10
2022-10-17T15:43:56.945Z,2.03
2022-10-17T15:46:29.190Z,1.97
2022-10-17T15:48:57.213Z,1.87
2022-10-17T15:51:24.296Z,2.00
2022-10-17T15:53:51.143Z,2.17
2022-10-17T15:56:28.676Z,2.07
2022-10-17T15:58:55.864Z,2.00
2022-10-17T16:01:26.322Z,2.00
2022-10-17T16:03:53.396Z,2.27
2022-10-17T16:06:21.047Z,2.00
2022-10-17T16:08:48.392Z,2.10
2022-10-17T16:11:20.648Z,2.10
2022-10-17T16:13:51.868Z,2.17
2022-10-17T16:16:19.037Z,2.50
2022-10-17T16:18:45.906Z,2.40
2022-10-17T16:21:15.184Z,2.10
2022-10-17T16:23:42.518Z,2.40
2022-10-17T16:26:09.945Z,2.40
2022-10-17T16:28:36.798Z,2.43
2022-10-17T16:31:03.605Z,3.20
2022-10-17T16:33:31.451Z,2.50
2022-10-17T16:35:58.326Z,2.80
2022-10-17T16:38:25.199Z,2.70
2022-10-17T16:40:51.986Z,2.93
2022-10-17T16:43:18.902Z,3.53
2022-10-17T16:45:45.711Z,2.97
2022-10-17T16:48:13.021Z,4.60
2022-10-17T16:50:40.534Z,4.83
2022-10-17T16:53:07.533Z,4.20
2022-10-17T16:55:34.392Z,3.67
2022-10-17T16:58:01.563Z,4.63
2022-10-17T17:00:28.642Z,4.83
2022-10-17T17:03:36.919Z,3.67
2022-10-17T17:06:05.276Z,3.40
2022-10-17T17:08:33.098Z,3.47
2022-10-17T17:11:00.332Z,2.70
2022-10-17T17:13:28.268Z,3.63
2022-10-17T17:16:06.363Z,4.03
2022-10-17T17:18:33.948Z,3.10
2022-10-17T17:21:02.447Z,3.27
2022-10-17T17:23:30.212Z,3.27
2022-10-17T17:26:02.541Z,3.87
2022-10-17T17:28:29.747Z,3.53
2022-10-17T17:30:56.657Z,4.47
2022-10-17T17:33:24.636Z,6.60
2022-10-17T17:35:56.632Z,6.83
2022-10-17T17:38:23.853Z,6.20
2022-10-17T17:40:51.310Z,5.83
2022-10-17T17:43:18.968Z,5.53
2022-10-17T17:45:46.266Z,5.67
2022-10-17T17:48:13.628Z,5.30
2022-10-17T17:50:41.672Z,5.47
2022-10-17T17:53:16.827Z,5.13
2022-10-17T17:55:44.069Z,8.97
2022-10-17T17:58:12.353Z,10.17
2022-10-17T18:00:40.728Z,10.70
2022-10-17T18:03:08.057Z,7.57
2022-10-17T18:05:34.876Z,5.77
2022-10-17T18:08:01.730Z,6.77
2022-10-17T18:10:29.425Z,7.33
2022-10-17T18:12:56.276Z,26.43
2022-10-17T18:15:23.340Z,9.07
2022-10-17T18:17:50.240Z,6.30
2022-10-17T18:20:17.167Z,5.43
2022-10-17T18:22:44.039Z,4.80
2022-10-17T18:25:10.922Z,4.23
2022-10-17T18:27:37.910Z,4.10
2022-10-17T18:30:05.443Z,4.03
2022-10-17T18:32:33.053Z,4.47
2022-10-17T18:35:00.141Z,4.17
2022-10-17T18:37:27.006Z,4.23
2022-10-17T18:39:55.907Z,4.03
2022-10-17T18:42:22.716Z,4.63
2022-10-17T18:44:49.955Z,4.40
2022-10-17T18:47:16.938Z,3.67
2022-10-17T18:49:43.807Z,4.93
2022-10-17T18:52:10.716Z,4.80
2022-10-17T18:54:37.598Z,5.13
2022-10-17T18:57:04.556Z,7.17
2022-10-17T18:59:31.456Z,10.83
2022-10-17T19:01:58.702Z,11.40
2022-10-17T19:04:25.932Z,16.77
2022-10-17T19:06:52.757Z,16.77
2022-10-17T19:09:19.596Z,11.17
2022-10-17T19:11:46.790Z,10.90
2022-10-17T19:14:14.040Z,26.20
2022-10-17T19:16:48.447Z,11.17
2022-10-17T19:19:22.498Z,9.00
2022-10-17T19:21:50.033Z,27.00
2022-10-17T19:24:22.779Z,6.73
2022-10-17T19:26:50.926Z,6.13
2022-10-17T19:29:18.715Z,6.20
2022-10-17T19:31:47.371Z,5.77
2022-10-17T19:34:15.290Z,6.40
2022-10-17T19:36:42.980Z,5.87
2022-10-17T19:39:19.085Z,7.10
2022-10-17T19:41:47.610Z,5.87
2022-10-17T19:44:15.322Z,5.13
2022-10-17T19:46:46.736Z,5.00
2022-10-17T19:49:13.687Z,5.23
2022-10-17T19:51:40.872Z,5.33
2022-10-17T19:54:07.752Z,5.17
2022-10-17T19:56:38.334Z,4.90
2022-10-17T19:59:06.753Z,5.57
2022-10-17T20:01:38.867Z,5.30
2022-10-17T20:04:07.584Z,5.57
2022-10-17T20:06:34.908Z,5.30
2022-10-17T20:09:01.735Z,5.30
2022-10-17T20:11:29.689Z,5.47
2022-10-17T20:13:57.141Z,5.60
2022-10-17T20:16:26.829Z,5.60
2022-10-17T20:18:57.139Z,5.70
2022-10-17T20:21:31.549Z,6.80
2022-10-17T20:24:00.059Z,5.93
2022-10-17T20:26:42.870Z,6.20
2022-10-17T20:29:15.672Z,6.57
2022-10-17T20:31:44.299Z,5.63
2022-10-17T20:34:16.022Z,7.03
2022-10-17T20:36:43.564Z,6.40
2022-10-17T20:39:12.811Z,6.67
2022-10-17T20:41:39.871Z,6.80
2022-10-17T20:44:07.470Z,6.93
2022-10-17T20:46:37.625Z,6.40
2022-10-17T20:49:07.270Z,7.10
2022-10-17T20:51:35.017Z,6.40
2022-10-17T20:54:02.805Z,6.20
2022-10-17T20:56:31.772Z,6.70
2022-10-17T20:59:01.229Z,5.93
2022-10-17T21:01:29.380Z,6.33
2022-10-17T21:03:59.625Z,6.47
2022-10-17T21:06:29.505Z,7.40
2022-10-17T21:08:57.617Z,16.00
2022-10-17T21:11:27.632Z,6.47
2022-10-17T21:13:56.869Z,6.90
2022-10-17T21:16:24.373Z,7.87
2022-10-17T21:18:51.248Z,6.73
2022-10-17T21:21:25.019Z,7.10
2022-10-17T21:23:52.684Z,8.07
2022-10-17T21:26:19.799Z,8.00
2022-10-17T21:28:47.958Z,8.17
2022-10-17T21:31:18.804Z,7.80
2022-10-17T21:34:00.178Z,7.87
2022-10-17T21:36:28.272Z,7.70
2022-10-17T21:38:56.401Z,8.70
2022-10-17T21:41:25.894Z,8.53
2022-10-17T21:43:54.620Z,7.70
2022-10-17T21:46:21.896Z,8.47
2022-10-17T21:48:49.307Z,7.63
2022-10-17T21:51:18.126Z,8.00
2022-10-17T21:53:45.037Z,8.30
2022-10-17T21:56:14.644Z,8.20
2022-10-17T21:58:42.107Z,8.00
2022-10-17T22:01:10.134Z,7.60
2022-10-17T22:03:45.862Z,7.33
2022-10-17T22:06:38.557Z,6.60
2022-10-17T22:09:04.326Z,6.60
2022-10-17T22:11:33.059Z,6.17
2022-10-17T22:14:32.602Z,5.93
2022-10-17T22:16:59.586Z,5.80
2022-10-17T22:19:27.200Z,6.47
2022-10-17T22:21:55.087Z,6.90
2022-10-17T22:24:23.316Z,6.50
2022-10-17T22:26:50.867Z,6.80
2022-10-17T22:29:17.815Z,6.60
2022-10-17T22:31:45.058Z,7.13
2022-10-17T22:34:14.171Z,6.27
2022-10-17T22:36:41.507Z,6.73
2022-10-17T22:39:09.125Z,6.47
2022-10-17T22:41:40.039Z,6.63
2022-10-17T22:44:07.268Z,6.73
2022-10-17T22:46:34.251Z,7.57
2022-10-17T22:49:01.102Z,7.27
2022-10-17T22:51:27.961Z,7.10
2022-10-17T22:53:54.828Z,7.23
2022-10-17T22:56:22.881Z,6.60
2022-10-17T22:58:50.262Z,6.77
2022-10-17T23:01:20.893Z,7.10
2022-10-17T23:03:48.359Z,7.20
2022-10-17T23:06:15.433Z,6.73
2022-10-17T23:08:42.618Z,6.93
2022-10-17T23:11:10.388Z,6.47
2022-10-17T23:13:37.775Z,6.53
2022-10-17T23:16:05.190Z,6.93
2022-10-17T23:18:32.066Z,6.93
2022-10-17T23:20:59.075Z,7.07
2022-10-17T23:23:25.950Z,7.50
2022-10-17T23:25:52.822Z,6.80
2022-10-17T23:28:19.671Z,6.97
2022-10-17T23:30:46.595Z,6.77
2022-10-17T23:33:14.191Z,6.00
2022-10-17T23:35:41.299Z,7.13
2022-10-17T23:38:08.293Z,6.63
2022-10-17T23:40:35.571Z,6.60
2022-10-17T23:43:03.417Z,6.50
2022-10-17T23:45:34.666Z,6.77
2022-10-17T23:48:04.959Z,6.70
2022-10-17T23:50:31.753Z,7.07
2022-10-17T23:52:58.566Z,7.00
2022-10-17T23:55:25.356Z,6.80
2022-10-17T23:57:52.175Z,7.00
